EZY146C EDDH-EGCC
Flight info
| Callsign | EZY146C |
|---|---|
| Flight time | 1h 17m |
| Altitude | 340 |
| Route | EDDH/33 WSN5G WSN N125 ITMIZ DCT MIMVA DCT OTBED OTBE1M EGCC/05R |
| Aircraft | A320/M-VGD/N |
Departure
| Time | 2026-04-23 07:49 |
|---|---|
| Airport | Hamburg Helmut Schmidt Airport (EDDH) |
Arrival
| Time | 2026-04-23 09:06 |
|---|---|
| Airport | Manchester Airport (EGCC) |
| Time | Latitude | Longitude | Altitude | Speed | Heading |
|---|---|---|---|---|---|
| 2026-04-23 07:27 | 53.62773 | 9.99109 | 44 ft | 0 kts | 62° |
| 2026-04-23 07:41 | 53.62768 | 9.99094 | 43 ft | 2 kts | 62° |
| 2026-04-23 07:41 | 53.62761 | 9.99068 | 41 ft | 2 kts | 62° |
| 2026-04-23 07:41 | 53.62752 | 9.99043 | 40 ft | 2 kts | 70° |
| 2026-04-23 07:42 | 53.62752 | 9.99016 | 40 ft | 2 kts | 141° |
| 2026-04-23 07:42 | 53.62754 | 9.99013 | 40 ft | 0 kts | 148° |
| 2026-04-23 07:45 | 53.62753 | 9.99014 | 40 ft | 1 kts | 150° |
| 2026-04-23 07:45 | 53.62734 | 9.99024 | 42 ft | 4 kts | 162° |
| 2026-04-23 07:45 | 53.62698 | 9.99046 | 43 ft | 7 kts | 155° |
| 2026-04-23 07:45 | 53.62649 | 9.99086 | 44 ft | 9 kts | 153° |
| 2026-04-23 07:46 | 53.62599 | 9.99131 | 44 ft | 7 kts | 148° |
| 2026-04-23 07:46 | 53.62577 | 9.99200 | 45 ft | 7 kts | 93° |
| 2026-04-23 07:46 | 53.62583 | 9.99271 | 45 ft | 6 kts | 81° |
| 2026-04-23 07:46 | 53.62592 | 9.99358 | 45 ft | 12 kts | 79° |
| 2026-04-23 07:47 | 53.62611 | 9.99512 | 44 ft | 13 kts | 78° |
| 2026-04-23 07:47 | 53.62627 | 9.99655 | 46 ft | 12 kts | 79° |
| 2026-04-23 07:47 | 53.62642 | 9.99776 | 47 ft | 9 kts | 75° |
| 2026-04-23 07:47 | 53.62673 | 9.99854 | 48 ft | 7 kts | 41° |
| 2026-04-23 07:48 | 53.62714 | 9.99870 | 48 ft | 6 kts | 355° |
| 2026-04-23 07:48 | 53.62787 | 9.99816 | 47 ft | 22 kts | 333° |
| 2026-04-23 07:48 | 53.63020 | 9.99616 | 45 ft | 66 kts | 332° |
| 2026-04-23 07:48 | 53.63627 | 9.99085 | 44 ft | 128 kts | 332° |
| 2026-04-23 07:49 | 53.64559 | 9.98296 | 182 ft | 162 kts | 329° |
| 2026-04-23 07:49 | 53.65564 | 9.97434 | 961 ft | 162 kts | 329° |
| 2026-04-23 07:49 | 53.66580 | 9.96571 | 1675 ft | 171 kts | 331° |
| 2026-04-23 07:49 | 53.67689 | 9.95649 | 2237 ft | 183 kts | 333° |
| 2026-04-23 07:50 | 53.68887 | 9.94674 | 2781 ft | 200 kts | 334° |
| 2026-04-23 07:50 | 53.70129 | 9.93638 | 3778 ft | 196 kts | 333° |
| 2026-04-23 07:50 | 53.71245 | 9.92376 | 4657 ft | 199 kts | 312° |
| 2026-04-23 07:50 | 53.71738 | 9.90129 | 5452 ft | 216 kts | 276° |
| 2026-04-23 07:51 | 53.71462 | 9.87480 | 5880 ft | 246 kts | 259° |
| 2026-04-23 07:51 | 53.70876 | 9.84619 | 6472 ft | 266 kts | 254° |
| 2026-04-23 07:51 | 53.70193 | 9.81668 | 7285 ft | 273 kts | 253° |
| 2026-04-23 07:51 | 53.69494 | 9.78660 | 8165 ft | 278 kts | 252° |
| 2026-04-23 07:52 | 53.68542 | 9.75753 | 9014 ft | 287 kts | 242° |
| 2026-04-23 07:52 | 53.67469 | 9.72877 | 9897 ft | 292 kts | 242° |
| 2026-04-23 07:52 | 53.66367 | 9.69962 | 10641 ft | 302 kts | 241° |
| 2026-04-23 07:52 | 53.65193 | 9.66857 | 10960 ft | 325 kts | 241° |
| 2026-04-23 07:53 | 53.63954 | 9.63583 | 11531 ft | 336 kts | 241° |
| 2026-04-23 07:53 | 53.62681 | 9.60235 | 12284 ft | 342 kts | 240° |
| 2026-04-23 07:53 | 53.61390 | 9.56841 | 13069 ft | 346 kts | 240° |
| 2026-04-23 07:53 | 53.60081 | 9.53408 | 13842 ft | 351 kts | 240° |
| 2026-04-23 07:54 | 53.58756 | 9.49929 | 14551 ft | 355 kts | 240° |
| 2026-04-23 07:54 | 53.57416 | 9.46407 | 15215 ft | 359 kts | 240° |
| 2026-04-23 07:54 | 53.56060 | 9.42845 | 15865 ft | 363 kts | 239° |
| 2026-04-23 07:54 | 53.54707 | 9.39292 | 16524 ft | 367 kts | 239° |
| 2026-04-23 07:55 | 53.53299 | 9.35605 | 17173 ft | 372 kts | 239° |
| 2026-04-23 07:55 | 53.51911 | 9.31977 | 17799 ft | 376 kts | 239° |
| 2026-04-23 07:55 | 53.50486 | 9.28256 | 18465 ft | 380 kts | 239° |
| 2026-04-23 07:55 | 53.49048 | 9.24511 | 19041 ft | 385 kts | 238° |
| 2026-04-23 07:56 | 53.47587 | 9.20717 | 19567 ft | 389 kts | 238° |
| 2026-04-23 07:56 | 53.46107 | 9.16878 | 20116 ft | 393 kts | 238° |
| 2026-04-23 07:56 | 53.44621 | 9.13018 | 20695 ft | 395 kts | 237° |
| 2026-04-23 07:56 | 53.43119 | 9.09125 | 21239 ft | 399 kts | 237° |
| 2026-04-23 07:57 | 53.41598 | 9.05191 | 21749 ft | 404 kts | 237° |
| 2026-04-23 07:57 | 53.40063 | 9.01232 | 22295 ft | 407 kts | 237° |
| 2026-04-23 07:57 | 53.38515 | 8.97251 | 22841 ft | 409 kts | 237° |
| 2026-04-23 07:57 | 53.36956 | 8.93241 | 23364 ft | 413 kts | 237° |
| 2026-04-23 07:58 | 53.35400 | 8.89177 | 23875 ft | 416 kts | 239° |
| 2026-04-23 07:58 | 53.34126 | 8.84804 | 24298 ft | 420 kts | 249° |
| 2026-04-23 07:58 | 53.33109 | 8.80203 | 24712 ft | 423 kts | 250° |
| 2026-04-23 07:58 | 53.32088 | 8.75574 | 25121 ft | 426 kts | 249° |
| 2026-04-23 07:59 | 53.31055 | 8.70910 | 25539 ft | 429 kts | 249° |
| 2026-04-23 07:59 | 53.30015 | 8.66225 | 25947 ft | 431 kts | 249° |
| 2026-04-23 07:59 | 53.28971 | 8.61508 | 26343 ft | 434 kts | 249° |
| 2026-04-23 07:59 | 53.27924 | 8.56743 | 26729 ft | 438 kts | 249° |
| 2026-04-23 08:00 | 53.26876 | 8.51953 | 27100 ft | 441 kts | 249° |
| 2026-04-23 08:00 | 53.25837 | 8.47105 | 27468 ft | 444 kts | 250° |
| 2026-04-23 08:00 | 53.24865 | 8.42185 | 27835 ft | 448 kts | 252° |
| 2026-04-23 08:00 | 53.23951 | 8.37261 | 28201 ft | 451 kts | 252° |
| 2026-04-23 08:01 | 53.23044 | 8.32231 | 28566 ft | 454 kts | 252° |
| 2026-04-23 08:01 | 53.22131 | 8.27167 | 28928 ft | 457 kts | 252° |
| 2026-04-23 08:01 | 53.21196 | 8.22085 | 29288 ft | 460 kts | 252° |
| 2026-04-23 08:01 | 53.20235 | 8.16974 | 29638 ft | 463 kts | 251° |
| 2026-04-23 08:02 | 53.19254 | 8.11842 | 29999 ft | 465 kts | 251° |
| 2026-04-23 08:02 | 53.18263 | 8.06677 | 30343 ft | 468 kts | 251° |
| 2026-04-23 08:02 | 53.17274 | 8.01492 | 30648 ft | 471 kts | 251° |
| 2026-04-23 08:02 | 53.16288 | 7.96274 | 30940 ft | 473 kts | 251° |
| 2026-04-23 08:03 | 53.15298 | 7.91024 | 31229 ft | 475 kts | 251° |
| 2026-04-23 08:03 | 53.14642 | 7.87544 | 31415 ft | 477 kts | 251° |
| 2026-04-23 08:03 | 53.13641 | 7.82263 | 31688 ft | 478 kts | 251° |
| 2026-04-23 08:03 | 53.12633 | 7.76966 | 31977 ft | 480 kts | 251° |
| 2026-04-23 08:04 | 53.11626 | 7.71679 | 32380 ft | 479 kts | 252° |
| 2026-04-23 08:04 | 53.10750 | 7.64483 | 32903 ft | 479 kts | 263° |
| 2026-04-23 08:04 | 53.10625 | 7.60741 | 33178 ft | 479 kts | 269° |
| 2026-04-23 08:04 | 53.10709 | 7.55200 | 33571 ft | 479 kts | 271° |
| 2026-04-23 08:05 | 53.10807 | 7.49667 | 33963 ft | 478 kts | 271° |
| 2026-04-23 08:05 | 53.10898 | 7.44140 | 34317 ft | 478 kts | 270° |
| 2026-04-23 08:05 | 53.10982 | 7.38627 | 34421 ft | 473 kts | 270° |
| 2026-04-23 08:06 | 53.11137 | 7.27928 | 34434 ft | 461 kts | 270° |
| 2026-04-23 08:06 | 53.11278 | 7.17281 | 34435 ft | 459 kts | 270° |
| 2026-04-23 08:07 | 53.11410 | 7.06659 | 34449 ft | 458 kts | 269° |
| 2026-04-23 08:07 | 53.11536 | 6.96065 | 34454 ft | 458 kts | 269° |
| 2026-04-23 08:08 | 53.11651 | 6.85483 | 34459 ft | 457 kts | 269° |
| 2026-04-23 08:08 | 53.11760 | 6.74890 | 34459 ft | 457 kts | 269° |
| 2026-04-23 08:09 | 53.11859 | 6.64367 | 34454 ft | 457 kts | 269° |
| 2026-04-23 08:09 | 53.11945 | 6.53783 | 34457 ft | 457 kts | 269° |
| 2026-04-23 08:10 | 53.12026 | 6.43205 | 34455 ft | 456 kts | 268° |
| 2026-04-23 08:10 | 53.12129 | 6.27399 | 34454 ft | 456 kts | 268° |
| 2026-04-23 08:11 | 53.12175 | 6.16842 | 34452 ft | 456 kts | 268° |
| 2026-04-23 08:11 | 53.12220 | 6.06284 | 34462 ft | 456 kts | 268° |
| 2026-04-23 08:12 | 53.12263 | 5.95734 | 34461 ft | 456 kts | 268° |
| 2026-04-23 08:12 | 53.12285 | 5.85241 | 34464 ft | 455 kts | 267° |
| 2026-04-23 08:13 | 53.12293 | 5.74682 | 34464 ft | 455 kts | 267° |
| 2026-04-23 08:13 | 53.12303 | 5.64131 | 34462 ft | 455 kts | 267° |
| 2026-04-23 08:14 | 53.12308 | 5.53590 | 34488 ft | 455 kts | 267° |
| 2026-04-23 08:14 | 53.12298 | 5.43056 | 34484 ft | 455 kts | 267° |
| 2026-04-23 08:15 | 53.12279 | 5.32578 | 34480 ft | 455 kts | 266° |
| 2026-04-23 08:15 | 53.12250 | 5.22037 | 34483 ft | 455 kts | 266° |
| 2026-04-23 08:16 | 53.12216 | 5.11487 | 34483 ft | 456 kts | 266° |
| 2026-04-23 08:16 | 53.12170 | 5.00941 | 34497 ft | 455 kts | 266° |
| 2026-04-23 08:17 | 53.12104 | 4.90391 | 34497 ft | 455 kts | 266° |
| 2026-04-23 08:17 | 53.12038 | 4.79840 | 34496 ft | 455 kts | 266° |
| 2026-04-23 08:18 | 53.11963 | 4.69320 | 34496 ft | 455 kts | 265° |
| 2026-04-23 08:18 | 53.11881 | 4.58863 | 34494 ft | 455 kts | 265° |
| 2026-04-23 08:19 | 53.11789 | 4.48321 | 34497 ft | 455 kts | 265° |
| 2026-04-23 08:19 | 53.11687 | 4.37803 | 34498 ft | 454 kts | 265° |
| 2026-04-23 08:20 | 53.11574 | 4.27331 | 34501 ft | 454 kts | 265° |
| 2026-04-23 08:20 | 53.11446 | 4.16822 | 34500 ft | 454 kts | 265° |
| 2026-04-23 08:21 | 53.11311 | 4.06296 | 34509 ft | 454 kts | 265° |
| 2026-04-23 08:21 | 53.11174 | 3.95812 | 34503 ft | 454 kts | 264° |
| 2026-04-23 08:22 | 53.11019 | 3.85285 | 34501 ft | 454 kts | 264° |
| 2026-04-23 08:22 | 53.10864 | 3.74756 | 34499 ft | 454 kts | 264° |
| 2026-04-23 08:23 | 53.10698 | 3.64228 | 34504 ft | 454 kts | 264° |
| 2026-04-23 08:23 | 53.10523 | 3.53788 | 34515 ft | 454 kts | 264° |
| 2026-04-23 08:24 | 53.10329 | 3.43288 | 34498 ft | 454 kts | 264° |
| 2026-04-23 08:24 | 53.10134 | 3.32794 | 34494 ft | 454 kts | 264° |
| 2026-04-23 08:25 | 53.10664 | 3.22247 | 34484 ft | 458 kts | 273° |
| 2026-04-23 08:25 | 53.11409 | 3.11700 | 34480 ft | 458 kts | 273° |
| 2026-04-23 08:26 | 53.12135 | 3.01230 | 34502 ft | 458 kts | 272° |
| 2026-04-23 08:26 | 53.12848 | 2.90689 | 34498 ft | 458 kts | 272° |
| 2026-04-23 08:27 | 53.13562 | 2.80141 | 34502 ft | 458 kts | 272° |
| 2026-04-23 08:27 | 53.14261 | 2.69569 | 34502 ft | 458 kts | 272° |
| 2026-04-23 08:28 | 53.14952 | 2.59011 | 34501 ft | 459 kts | 272° |
| 2026-04-23 08:28 | 53.15635 | 2.48428 | 34515 ft | 459 kts | 272° |
| 2026-04-23 08:29 | 53.16307 | 2.37908 | 34516 ft | 458 kts | 272° |
| 2026-04-23 08:29 | 53.16978 | 2.27328 | 34513 ft | 458 kts | 272° |
| 2026-04-23 08:30 | 53.17637 | 2.16743 | 34510 ft | 458 kts | 272° |
| 2026-04-23 08:30 | 53.18273 | 2.06175 | 34511 ft | 458 kts | 271° |
| 2026-04-23 08:31 | 53.18896 | 1.95671 | 34530 ft | 458 kts | 272° |
| 2026-04-23 08:31 | 53.19526 | 1.85106 | 34524 ft | 458 kts | 272° |
| 2026-04-23 08:32 | 53.20146 | 1.74520 | 34527 ft | 458 kts | 272° |
| 2026-04-23 08:32 | 53.20750 | 1.63953 | 34525 ft | 458 kts | 271° |
| 2026-04-23 08:33 | 53.21351 | 1.53343 | 34526 ft | 458 kts | 271° |
| 2026-04-23 08:33 | 53.21939 | 1.42785 | 34542 ft | 457 kts | 272° |
| 2026-04-23 08:34 | 53.22516 | 1.32220 | 34547 ft | 456 kts | 272° |
| 2026-04-23 08:34 | 53.23079 | 1.21761 | 34547 ft | 455 kts | 272° |
| 2026-04-23 08:35 | 53.23632 | 1.11248 | 34531 ft | 455 kts | 272° |
| 2026-04-23 08:35 | 53.24176 | 1.00754 | 34262 ft | 450 kts | 273° |
| 2026-04-23 08:36 | 53.24443 | 0.95596 | 33986 ft | 443 kts | 273° |
| 2026-04-23 08:36 | 53.24703 | 0.90503 | 33712 ft | 438 kts | 273° |
| 2026-04-23 08:36 | 53.24958 | 0.85441 | 33443 ft | 435 kts | 273° |
| 2026-04-23 08:36 | 53.25209 | 0.80413 | 33176 ft | 434 kts | 272° |
| 2026-04-23 08:37 | 53.25460 | 0.75411 | 32910 ft | 432 kts | 272° |
| 2026-04-23 08:37 | 53.25707 | 0.70420 | 32650 ft | 430 kts | 272° |
| 2026-04-23 08:37 | 53.25948 | 0.65462 | 32392 ft | 428 kts | 272° |
| 2026-04-23 08:37 | 53.26184 | 0.60525 | 32140 ft | 425 kts | 272° |
| 2026-04-23 08:38 | 53.26419 | 0.55618 | 31888 ft | 423 kts | 272° |
| 2026-04-23 08:38 | 53.26946 | 0.50774 | 31636 ft | 423 kts | 283° |
| 2026-04-23 08:38 | 53.27664 | 0.46051 | 31389 ft | 415 kts | 284° |
| 2026-04-23 08:38 | 53.28369 | 0.41410 | 31141 ft | 409 kts | 285° |
| 2026-04-23 08:39 | 53.29069 | 0.36816 | 30899 ft | 407 kts | 285° |
| 2026-04-23 08:39 | 53.29765 | 0.32247 | 30661 ft | 404 kts | 285° |
| 2026-04-23 08:39 | 53.30453 | 0.27708 | 30379 ft | 402 kts | 285° |
| 2026-04-23 08:39 | 53.31135 | 0.23191 | 30088 ft | 399 kts | 285° |
| 2026-04-23 08:40 | 53.31812 | 0.18699 | 29809 ft | 398 kts | 285° |
| 2026-04-23 08:40 | 53.32482 | 0.14231 | 29527 ft | 395 kts | 285° |
| 2026-04-23 08:40 | 53.33148 | 0.09783 | 29247 ft | 393 kts | 285° |
| 2026-04-23 08:40 | 53.33808 | 0.05347 | 28967 ft | 392 kts | 284° |
| 2026-04-23 08:41 | 53.34453 | 0.00983 | 28700 ft | 390 kts | 285° |
| 2026-04-23 08:41 | 53.35100 | -0.03406 | 28433 ft | 385 kts | 287° |
| 2026-04-23 08:41 | 53.35735 | -0.07715 | 28162 ft | 379 kts | 287° |
| 2026-04-23 08:41 | 53.36364 | -0.11977 | 27898 ft | 376 kts | 287° |
| 2026-04-23 08:42 | 53.36989 | -0.16209 | 27634 ft | 374 kts | 287° |
| 2026-04-23 08:42 | 53.37610 | -0.20436 | 27373 ft | 373 kts | 287° |
| 2026-04-23 08:42 | 53.38226 | -0.24644 | 27117 ft | 371 kts | 286° |
| 2026-04-23 08:42 | 53.38838 | -0.28838 | 26859 ft | 370 kts | 286° |
| 2026-04-23 08:43 | 53.39446 | -0.33022 | 26608 ft | 369 kts | 286° |
| 2026-04-23 08:43 | 53.40051 | -0.37188 | 26351 ft | 368 kts | 286° |
| 2026-04-23 08:43 | 53.40654 | -0.41350 | 26107 ft | 367 kts | 286° |
| 2026-04-23 08:43 | 53.41251 | -0.45499 | 25861 ft | 366 kts | 286° |
| 2026-04-23 08:44 | 53.41846 | -0.49631 | 25615 ft | 364 kts | 286° |
| 2026-04-23 08:44 | 53.42441 | -0.53756 | 25366 ft | 363 kts | 286° |
| 2026-04-23 08:44 | 53.43031 | -0.57867 | 25146 ft | 362 kts | 286° |
| 2026-04-23 08:44 | 53.43615 | -0.61969 | 24898 ft | 361 kts | 285° |
| 2026-04-23 08:45 | 53.44196 | -0.66061 | 24668 ft | 360 kts | 285° |
| 2026-04-23 08:45 | 53.44773 | -0.70141 | 24440 ft | 359 kts | 285° |
| 2026-04-23 08:45 | 53.45348 | -0.74214 | 24204 ft | 358 kts | 285° |
| 2026-04-23 08:45 | 53.45922 | -0.78276 | 23934 ft | 357 kts | 285° |
| 2026-04-23 08:46 | 53.46493 | -0.82326 | 23660 ft | 356 kts | 285° |
| 2026-04-23 08:46 | 53.47058 | -0.86346 | 23327 ft | 351 kts | 285° |
| 2026-04-23 08:46 | 53.47614 | -0.90319 | 22881 ft | 348 kts | 285° |
| 2026-04-23 08:46 | 53.48166 | -0.94269 | 22443 ft | 346 kts | 284° |
| 2026-04-23 08:47 | 53.48715 | -0.98197 | 22006 ft | 344 kts | 284° |
| 2026-04-23 08:47 | 53.49258 | -1.02091 | 21577 ft | 342 kts | 284° |
| 2026-04-23 08:47 | 53.49795 | -1.05968 | 21144 ft | 340 kts | 285° |
| 2026-04-23 08:47 | 53.50329 | -1.09824 | 20722 ft | 339 kts | 285° |
| 2026-04-23 08:48 | 53.50861 | -1.13670 | 20305 ft | 337 kts | 284° |
| 2026-04-23 08:48 | 53.51389 | -1.17511 | 19881 ft | 337 kts | 284° |
| 2026-04-23 08:48 | 53.51915 | -1.21340 | 19462 ft | 336 kts | 283° |
| 2026-04-23 08:48 | 53.52432 | -1.25118 | 19055 ft | 336 kts | 283° |
| 2026-04-23 08:49 | 53.52955 | -1.28946 | 18638 ft | 335 kts | 283° |
| 2026-04-23 08:49 | 53.53471 | -1.32731 | 18536 ft | 330 kts | 282° |
| 2026-04-23 08:49 | 53.53981 | -1.36488 | 18388 ft | 328 kts | 282° |
| 2026-04-23 08:49 | 53.54486 | -1.40229 | 17817 ft | 331 kts | 282° |
| 2026-04-23 08:50 | 53.55005 | -1.44081 | 17047 ft | 341 kts | 282° |
| 2026-04-23 08:50 | 53.55359 | -1.46709 | 16713 ft | 341 kts | 282° |
| 2026-04-23 08:50 | 53.55882 | -1.50588 | 16342 ft | 338 kts | 281° |
| 2026-04-23 08:50 | 53.56393 | -1.54381 | 15914 ft | 336 kts | 281° |
| 2026-04-23 08:51 | 53.56908 | -1.58208 | 15515 ft | 334 kts | 281° |
| 2026-04-23 08:51 | 53.57418 | -1.62013 | 15114 ft | 333 kts | 280° |
| 2026-04-23 08:51 | 53.57923 | -1.65803 | 14722 ft | 331 kts | 280° |
| 2026-04-23 08:51 | 53.58425 | -1.69575 | 14365 ft | 328 kts | 280° |
| 2026-04-23 08:52 | 53.58858 | -1.73337 | 13859 ft | 326 kts | 271° |
| 2026-04-23 08:52 | 53.58745 | -1.77115 | 13362 ft | 323 kts | 261° |
| 2026-04-23 08:52 | 53.58483 | -1.80866 | 12869 ft | 323 kts | 261° |
| 2026-04-23 08:52 | 53.58209 | -1.84609 | 12389 ft | 322 kts | 260° |
| 2026-04-23 08:53 | 53.57931 | -1.88352 | 11897 ft | 322 kts | 261° |
| 2026-04-23 08:53 | 53.57652 | -1.92079 | 11430 ft | 321 kts | 260° |
| 2026-04-23 08:53 | 53.57371 | -1.95810 | 10968 ft | 321 kts | 260° |
| 2026-04-23 08:53 | 53.57090 | -1.99529 | 10513 ft | 321 kts | 260° |
| 2026-04-23 08:54 | 53.56808 | -2.03230 | 10009 ft | 313 kts | 260° |
| 2026-04-23 08:54 | 53.56542 | -2.06791 | 9516 ft | 300 kts | 261° |
| 2026-04-23 08:54 | 53.56290 | -2.10207 | 9012 ft | 290 kts | 260° |
| 2026-04-23 08:54 | 53.56051 | -2.13543 | 8534 ft | 285 kts | 260° |
| 2026-04-23 08:55 | 53.55814 | -2.16863 | 8060 ft | 287 kts | 260° |
| 2026-04-23 08:55 | 53.55553 | -2.20198 | 7588 ft | 287 kts | 255° |
| 2026-04-23 08:55 | 53.54770 | -2.23221 | 7136 ft | 282 kts | 233° |
| 2026-04-23 08:55 | 53.53640 | -2.25910 | 6653 ft | 282 kts | 230° |
| 2026-04-23 08:56 | 53.52513 | -2.28488 | 6505 ft | 272 kts | 230° |
| 2026-04-23 08:56 | 53.51382 | -2.31066 | 6511 ft | 267 kts | 230° |
| 2026-04-23 08:56 | 53.50287 | -2.33565 | 6489 ft | 270 kts | 230° |
| 2026-04-23 08:56 | 53.49180 | -2.36095 | 6093 ft | 268 kts | 230° |
| 2026-04-23 08:57 | 53.48076 | -2.38616 | 5673 ft | 267 kts | 230° |
| 2026-04-23 08:57 | 53.46975 | -2.41124 | 5270 ft | 266 kts | 230° |
| 2026-04-23 08:57 | 53.45672 | -2.43253 | 4832 ft | 259 kts | 213° |
| 2026-04-23 08:57 | 53.44186 | -2.44958 | 4435 ft | 258 kts | 211° |
| 2026-04-23 08:58 | 53.42689 | -2.46598 | 4018 ft | 256 kts | 210° |
| 2026-04-23 08:58 | 53.41205 | -2.48223 | 3701 ft | 251 kts | 210° |
| 2026-04-23 08:58 | 53.39777 | -2.49782 | 3577 ft | 239 kts | 210° |
| 2026-04-23 08:58 | 53.38420 | -2.51286 | 3509 ft | 227 kts | 210° |
| 2026-04-23 08:59 | 53.37148 | -2.52701 | 3510 ft | 212 kts | 210° |
| 2026-04-23 08:59 | 53.35921 | -2.53981 | 3504 ft | 204 kts | 200° |
| 2026-04-23 08:59 | 53.34597 | -2.54700 | 3364 ft | 199 kts | 191° |
| 2026-04-23 08:59 | 53.33256 | -2.55254 | 3190 ft | 197 kts | 190° |
| 2026-04-23 09:00 | 53.31947 | -2.55774 | 3065 ft | 194 kts | 190° |
| 2026-04-23 09:00 | 53.30640 | -2.56293 | 3001 ft | 186 kts | 189° |
| 2026-04-23 09:00 | 53.29432 | -2.56800 | 2958 ft | 178 kts | 190° |
| 2026-04-23 09:00 | 53.28246 | -2.57325 | 2831 ft | 174 kts | 190° |
| 2026-04-23 09:01 | 53.27071 | -2.57798 | 2697 ft | 171 kts | 180° |
| 2026-04-23 09:01 | 53.26007 | -2.57287 | 2592 ft | 158 kts | 141° |
| 2026-04-23 09:01 | 53.25217 | -2.56012 | 2518 ft | 163 kts | 132° |
| 2026-04-23 09:01 | 53.24598 | -2.54408 | 2523 ft | 171 kts | 106° |
| 2026-04-23 09:02 | 53.24569 | -2.52400 | 2520 ft | 175 kts | 88° |
| 2026-04-23 09:02 | 53.24714 | -2.50398 | 2503 ft | 168 kts | 85° |
| 2026-04-23 09:02 | 53.24903 | -2.48530 | 2501 ft | 160 kts | 75° |
| 2026-04-23 09:02 | 53.25479 | -2.46936 | 2501 ft | 163 kts | 56° |
| 2026-04-23 09:03 | 53.26193 | -2.45478 | 2434 ft | 162 kts | 56° |
| 2026-04-23 09:03 | 53.26900 | -2.44033 | 2224 ft | 160 kts | 56° |
| 2026-04-23 09:03 | 53.27602 | -2.42592 | 2008 ft | 159 kts | 56° |
| 2026-04-23 09:03 | 53.28271 | -2.41221 | 1790 ft | 144 kts | 56° |
| 2026-04-23 09:04 | 53.28887 | -2.39955 | 1598 ft | 137 kts | 55° |
| 2026-04-23 09:04 | 53.29475 | -2.38744 | 1418 ft | 132 kts | 54° |
| 2026-04-23 09:04 | 53.30053 | -2.37552 | 1245 ft | 130 kts | 55° |
| 2026-04-23 09:04 | 53.30618 | -2.36388 | 1016 ft | 130 kts | 51° |
| 2026-04-23 09:05 | 53.31188 | -2.35217 | 903 ft | 129 kts | 51° |
| 2026-04-23 09:05 | 53.31753 | -2.34036 | 746 ft | 130 kts | 52° |
| 2026-04-23 09:05 | 53.32328 | -2.32873 | 559 ft | 130 kts | 53° |
| 2026-04-23 09:05 | 53.32880 | -2.31698 | 352 ft | 126 kts | 51° |
| 2026-04-23 09:06 | 53.33432 | -2.30576 | 205 ft | 121 kts | 51° |
| 2026-04-23 09:06 | 53.33867 | -2.29677 | 205 ft | 75 kts | 51° |
| 2026-04-23 09:06 | 53.34143 | -2.29106 | 215 ft | 42 kts | 51° |
| 2026-04-23 09:06 | 53.34306 | -2.28772 | 217 ft | 31 kts | 48° |
| 2026-04-23 09:07 | 53.34456 | -2.28574 | 220 ft | 21 kts | 28° |
| 2026-04-23 09:07 | 53.34583 | -2.28484 | 226 ft | 19 kts | 21° |
| 2026-04-23 09:07 | 53.34699 | -2.28405 | 232 ft | 18 kts | 28° |
| 2026-04-23 09:07 | 53.34784 | -2.28256 | 237 ft | 18 kts | 51° |
| 2026-04-23 09:08 | 53.34865 | -2.28091 | 238 ft | 20 kts | 52° |
| 2026-04-23 09:08 | 53.34950 | -2.27907 | 238 ft | 20 kts | 51° |
| 2026-04-23 09:08 | 53.35041 | -2.27718 | 241 ft | 21 kts | 51° |
| 2026-04-23 09:08 | 53.35130 | -2.27536 | 246 ft | 21 kts | 51° |
| 2026-04-23 09:09 | 53.35217 | -2.27351 | 250 ft | 20 kts | 51° |
| 2026-04-23 09:09 | 53.35308 | -2.27208 | 254 ft | 15 kts | 26° |
| 2026-04-23 09:09 | 53.35402 | -2.27227 | 259 ft | 14 kts | 326° |
| 2026-04-23 09:09 | 53.35465 | -2.27310 | 262 ft | 10 kts | 321° |
| 2026-04-23 09:10 | 53.35514 | -2.27378 | 261 ft | 9 kts | 320° |
| 2026-04-23 09:10 | 53.35665 | -2.27580 | 248 ft | 20 kts | 321° |
| 2026-04-23 09:10 | 53.35791 | -2.27694 | 247 ft | 22 kts | 320° |
| 2026-04-23 09:11 | 53.35888 | -2.27837 | 247 ft | 16 kts | 343° |
| 2026-04-23 09:11 | 53.36007 | -2.27829 | 247 ft | 18 kts | 6° |
| 2026-04-23 09:11 | 53.36123 | -2.27922 | 247 ft | 20 kts | 316° |
| 2026-04-23 09:11 | 53.36228 | -2.28099 | 247 ft | 23 kts | 315° |
| 2026-04-23 09:12 | 53.36340 | -2.28286 | 247 ft | 20 kts | 315° |
| 2026-04-23 09:12 | 53.36407 | -2.28432 | 247 ft | 14 kts | 296° |
| 2026-04-23 09:12 | 53.36463 | -2.28560 | 247 ft | 13 kts | 314° |
| 2026-04-23 09:12 | 53.36525 | -2.28665 | 247 ft | 12 kts | 315° |
| 2026-04-23 09:13 | 53.36577 | -2.28766 | 247 ft | 11 kts | 302° |
| 2026-04-23 09:13 | 53.36618 | -2.28869 | 247 ft | 10 kts | 313° |
| 2026-04-23 09:13 | 53.36670 | -2.28957 | 247 ft | 11 kts | 315° |
| 2026-04-23 09:13 | 53.36730 | -2.29055 | 247 ft | 13 kts | 321° |
| 2026-04-23 09:14 | 53.36796 | -2.29055 | 247 ft | 8 kts | 18° |
| 2026-04-23 09:14 | 53.36854 | -2.29006 | 247 ft | 11 kts | 43° |
| 2026-04-23 09:14 | 53.36905 | -2.28921 | 247 ft | 10 kts | 45° |
| 2026-04-23 09:14 | 53.36941 | -2.28861 | 247 ft | 5 kts | 45° |
| 2026-04-23 09:15 | 53.36952 | -2.28823 | 247 ft | 3 kts | 85° |
| 2026-04-23 09:15 | 53.36944 | -2.28789 | 247 ft | 2 kts | 120° |
| 2026-04-23 09:15 | 53.36936 | -2.28771 | 247 ft | 2 kts | 131° |
| 2026-04-23 09:15 | 53.36923 | -2.28748 | 247 ft | 2 kts | 134° |
| 2026-04-23 09:16 | 53.36920 | -2.28743 | 247 ft | 0 kts | 134° |